createdAt,value
2017-08-26T00:00:59.290Z,16.20
2017-08-26T00:03:27.439Z,15.43
2017-08-26T00:05:55.590Z,15.68
2017-08-26T00:08:23.778Z,15.02
2017-08-26T00:10:51.939Z,15.50
2017-08-26T00:13:20.108Z,15.18
2017-08-26T00:15:48.285Z,15.23
2017-08-26T00:18:17.210Z,17.05
2017-08-26T00:20:45.378Z,16.83
2017-08-26T00:23:13.902Z,14.68
2017-08-26T00:25:42.119Z,17.60
2017-08-26T00:28:11.062Z,15.50
2017-08-26T00:30:39.300Z,16.55
2017-08-26T00:33:07.522Z,19.98
2017-08-26T00:35:35.677Z,18.98
2017-08-26T00:38:03.861Z,19.08
2017-08-26T00:40:32.011Z,17.73
2017-08-26T00:43:00.187Z,18.65
2017-08-26T00:45:28.367Z,19.25
2017-08-26T00:47:56.524Z,18.90
2017-08-26T00:50:24.677Z,16.87
2017-08-26T00:52:52.868Z,18.30
2017-08-26T00:55:21.042Z,21.35
2017-08-26T00:57:49.988Z,18.27
2017-08-26T01:00:18.201Z,17.98
2017-08-26T01:02:46.387Z,20.55
2017-08-26T01:05:14.564Z,19.95
2017-08-26T01:07:42.751Z,19.77
2017-08-26T01:10:10.902Z,20.77
2017-08-26T01:12:39.076Z,18.05
2017-08-26T01:15:07.275Z,21.60
2017-08-26T01:17:35.430Z,22.02
2017-08-26T01:20:03.593Z,16.65
2017-08-26T01:22:31.789Z,15.95
2017-08-26T01:24:59.964Z,15.25
2017-08-26T01:27:28.145Z,14.57
2017-08-26T01:29:56.339Z,14.30
2017-08-26T01:32:24.486Z,15.15
2017-08-26T01:34:52.645Z,14.15
2017-08-26T01:37:20.850Z,15.70
2017-08-26T01:39:49.097Z,15.38
2017-08-26T01:42:17.247Z,14.87
2017-08-26T01:44:45.426Z,16.90
2017-08-26T01:47:13.626Z,14.65
2017-08-26T01:49:41.775Z,15.52
2017-08-26T01:52:09.970Z,15.43
2017-08-26T01:54:38.115Z,14.38
2017-08-26T01:57:06.292Z,14.40
2017-08-26T01:59:34.479Z,15.48
2017-08-26T02:02:02.642Z,15.30
2017-08-26T02:04:30.795Z,14.82
2017-08-26T02:06:58.982Z,13.48
2017-08-26T02:09:27.160Z,14.82
2017-08-26T02:11:55.334Z,13.75
2017-08-26T02:14:23.516Z,13.65
2017-08-26T02:16:51.704Z,13.23
2017-08-26T02:19:19.881Z,14.80
2017-08-26T02:21:48.086Z,15.07
2017-08-26T02:24:16.237Z,15.20
2017-08-26T02:26:44.412Z,13.77
2017-08-26T02:29:12.610Z,13.35
2017-08-26T02:31:40.773Z,15.15
2017-08-26T02:34:08.938Z,14.90
2017-08-26T02:36:37.523Z,15.00
2017-08-26T02:39:05.686Z,14.05
2017-08-26T02:41:33.834Z,21.23
2017-08-26T02:44:02.747Z,13.95
2017-08-26T02:46:30.899Z,12.88
2017-08-26T02:48:59.073Z,16.83
2017-08-26T02:51:27.278Z,13.52
2017-08-26T02:53:55.467Z,13.15
2017-08-26T02:56:23.641Z,12.85
2017-08-26T02:58:52.588Z,11.68
2017-08-26T03:01:20.765Z,15.05
2017-08-26T03:03:48.923Z,12.37
2017-08-26T03:06:17.106Z,12.20
2017-08-26T03:08:45.253Z,14.38
2017-08-26T03:11:13.431Z,11.25
2017-08-26T03:13:41.639Z,12.00
2017-08-26T03:16:09.801Z,11.10
2017-08-26T03:18:37.978Z,11.65
2017-08-26T03:21:06.153Z,11.32
2017-08-26T03:23:34.297Z,10.38
2017-08-26T03:26:02.482Z,11.07
2017-08-26T03:28:30.662Z,12.20
2017-08-26T03:30:58.829Z,10.70
2017-08-26T03:33:27.004Z,11.48
2017-08-26T03:35:55.200Z,12.07
2017-08-26T03:38:23.350Z,10.95
2017-08-26T03:40:51.493Z,9.93
2017-08-26T03:43:19.693Z,10.32
2017-08-26T03:45:47.851Z,9.15
2017-08-26T03:48:16.021Z,12.00
2017-08-26T03:50:44.202Z,10.00
2017-08-26T03:53:12.364Z,10.18
2017-08-26T03:55:40.509Z,10.18
2017-08-26T03:58:08.701Z,16.50
2017-08-26T04:00:36.851Z,10.40
2017-08-26T04:03:05.028Z,11.68
2017-08-26T04:05:33.231Z,10.15
2017-08-26T04:08:01.381Z,10.73
2017-08-26T04:10:29.552Z,12.07
2017-08-26T04:12:57.740Z,10.52
2017-08-26T04:15:25.907Z,10.00
2017-08-26T04:17:54.077Z,10.48
2017-08-26T04:20:22.255Z,10.32
2017-08-26T04:22:50.402Z,9.45
2017-08-26T04:25:18.558Z,10.43
2017-08-26T04:27:46.757Z,9.38
2017-08-26T04:30:14.920Z,9.43
2017-08-26T04:32:43.105Z,10.73
2017-08-26T04:35:11.304Z,9.88
2017-08-26T04:37:39.455Z,10.88
2017-08-26T04:40:07.625Z,9.15
2017-08-26T04:42:35.804Z,10.98
2017-08-26T04:45:03.955Z,9.43
2017-08-26T04:47:32.133Z,12.18
2017-08-26T04:50:00.326Z,8.90
2017-08-26T04:52:28.502Z,10.15
2017-08-26T04:54:56.679Z,9.68
2017-08-26T04:57:24.866Z,10.02
2017-08-26T04:59:53.018Z,9.65
2017-08-26T05:02:21.181Z,8.82
2017-08-26T05:04:49.403Z,9.30
2017-08-26T05:07:17.571Z,9.88
2017-08-26T05:09:45.719Z,9.20
2017-08-26T05:12:13.926Z,14.80
2017-08-26T05:14:42.082Z,12.25
2017-08-26T05:17:10.253Z,12.43
2017-08-26T05:19:38.452Z,10.73
2017-08-26T05:22:06.617Z,10.55
2017-08-26T05:24:34.763Z,9.98
2017-08-26T05:27:02.933Z,10.80
2017-08-26T05:29:31.090Z,11.93
2017-08-26T05:32:00.028Z,14.18
2017-08-26T05:34:28.224Z,9.82
2017-08-26T05:36:56.421Z,9.45
2017-08-26T05:39:24.593Z,12.77
2017-08-26T05:41:52.880Z,9.68
2017-08-26T05:44:21.035Z,9.57
2017-08-26T05:46:49.184Z,9.40
2017-08-26T05:49:17.366Z,10.48
2017-08-26T05:51:45.535Z,9.50
2017-08-26T05:54:13.711Z,8.95
2017-08-26T05:56:41.886Z,9.57
2017-08-26T05:59:10.030Z,8.77
2017-08-26T06:01:38.198Z,9.43
2017-08-26T06:04:06.376Z,12.48
2017-08-26T06:06:34.522Z,7.87
2017-08-26T06:09:02.666Z,9.82
2017-08-26T06:11:30.866Z,7.28
2017-08-26T06:13:59.010Z,7.30
2017-08-26T06:16:27.175Z,8.85
2017-08-26T06:18:56.125Z,7.15
2017-08-26T06:21:24.272Z,8.65
2017-08-26T06:23:52.449Z,9.75
2017-08-26T06:26:20.629Z,8.63
2017-08-26T06:28:48.796Z,10.27
2017-08-26T06:31:16.942Z,7.18
2017-08-26T06:33:45.133Z,7.35
2017-08-26T06:36:13.283Z,6.30
2017-08-26T06:38:41.430Z,8.40
2017-08-26T06:41:09.602Z,7.60
2017-08-26T06:43:37.768Z,5.62
2017-08-26T06:46:05.933Z,5.93
2017-08-26T06:48:34.114Z,7.57
2017-08-26T06:51:02.266Z,4.57
2017-08-26T06:53:30.410Z,5.07
2017-08-26T06:55:58.605Z,6.32
2017-08-26T06:58:26.780Z,7.07
2017-08-26T07:00:54.935Z,5.85
2017-08-26T07:03:23.137Z,6.85
2017-08-26T07:05:51.306Z,4.97
2017-08-26T07:08:19.464Z,4.60
2017-08-26T07:10:47.661Z,6.30
2017-08-26T07:13:15.812Z,4.30
2017-08-26T07:15:44.027Z,4.35
2017-08-26T07:18:12.202Z,4.85
2017-08-26T07:20:40.360Z,4.75
2017-08-26T07:23:08.536Z,4.25
2017-08-26T07:25:36.731Z,5.35
2017-08-26T07:28:04.894Z,3.75
2017-08-26T07:30:33.057Z,5.60
2017-08-26T07:33:01.227Z,7.80
2017-08-26T07:35:29.386Z,2.75
2017-08-26T07:37:58.298Z,5.03
2017-08-26T07:40:26.497Z,2.92
2017-08-26T07:42:54.668Z,3.17
2017-08-26T07:45:22.815Z,7.72
2017-08-26T07:47:50.986Z,3.45
2017-08-26T07:50:19.149Z,4.35
2017-08-26T07:52:47.313Z,4.87
2017-08-26T07:55:15.487Z,3.67
2017-08-26T07:57:43.635Z,4.78
2017-08-26T08:00:11.828Z,4.72
2017-08-26T08:02:40.004Z,3.58
2017-08-26T08:05:08.158Z,2.80
2017-08-26T08:07:36.308Z,3.87
2017-08-26T08:10:04.515Z,2.70
2017-08-26T08:12:32.688Z,7.00
2017-08-26T08:15:00.840Z,6.77
2017-08-26T08:17:29.038Z,5.20
2017-08-26T08:19:57.188Z,3.37
2017-08-26T08:22:25.354Z,4.70
2017-08-26T08:24:53.529Z,4.57
2017-08-26T08:27:21.697Z,2.87
2017-08-26T08:29:49.865Z,3.23
2017-08-26T08:32:18.065Z,3.77
2017-08-26T08:34:46.215Z,3.60
2017-08-26T08:37:14.383Z,3.40
2017-08-26T08:39:42.927Z,4.23
2017-08-26T08:42:11.098Z,3.43
2017-08-26T08:44:39.270Z,2.77
2017-08-26T08:47:07.509Z,3.23
2017-08-26T08:49:35.663Z,2.90
2017-08-26T08:52:03.821Z,3.13
2017-08-26T08:54:32.004Z,3.60
2017-08-26T08:57:00.165Z,3.00
2017-08-26T08:59:28.307Z,3.63
2017-08-26T09:01:56.507Z,3.30
2017-08-26T09:04:25.429Z,3.40
2017-08-26T09:06:53.591Z,3.03
2017-08-26T09:09:21.778Z,3.80
2017-08-26T09:11:49.941Z,2.90
2017-08-26T09:14:18.095Z,3.00
2017-08-26T09:16:46.293Z,4.00
2017-08-26T09:19:14.442Z,4.80
2017-08-26T09:21:42.610Z,3.97
2017-08-26T09:24:10.805Z,3.93
2017-08-26T09:26:38.978Z,3.93
2017-08-26T09:29:07.146Z,3.57
2017-08-26T09:31:35.323Z,3.53
2017-08-26T09:34:03.470Z,3.43
2017-08-26T09:36:31.615Z,3.50
2017-08-26T09:38:59.786Z,3.43
2017-08-26T09:43:55.720Z,3.83
2017-08-26T09:46:23.896Z,3.53
2017-08-26T09:51:19.836Z,3.70
2017-08-26T09:53:48.026Z,3.50
2017-08-26T09:56:16.178Z,3.50
2017-08-26T09:58:44.320Z,9.13
2017-08-26T10:01:12.491Z,3.00
2017-08-26T10:03:40.659Z,6.10
2017-08-26T10:06:08.821Z,3.03
2017-08-26T10:08:37.017Z,3.05
2017-08-26T10:11:05.927Z,4.10
2017-08-26T10:13:34.090Z,3.90
2017-08-26T10:16:02.284Z,5.13
2017-08-26T10:18:30.445Z,4.43
2017-08-26T10:20:58.597Z,3.40
2017-08-26T10:23:26.770Z,4.23
2017-08-26T10:25:54.914Z,3.17
2017-08-26T10:28:23.066Z,2.57
2017-08-26T10:30:51.247Z,2.63
2017-08-26T10:33:19.432Z,3.00
2017-08-26T10:35:47.592Z,6.80
2017-08-26T10:38:15.790Z,3.50
2017-08-26T10:40:43.954Z,2.67
2017-08-26T10:43:12.103Z,3.33
2017-08-26T10:45:41.166Z,3.20
2017-08-26T10:48:09.330Z,3.30
2017-08-26T10:50:37.496Z,2.70
2017-08-26T10:53:05.678Z,2.87
2017-08-26T10:55:33.823Z,3.93
2017-08-26T10:58:01.971Z,3.03
2017-08-26T11:00:30.159Z,3.20
2017-08-26T11:02:58.331Z,4.00
2017-08-26T11:05:26.496Z,4.10
2017-08-26T11:07:54.666Z,4.20
2017-08-26T11:10:22.848Z,4.57
2017-08-26T11:12:51.018Z,3.73
2017-08-26T11:15:19.320Z,3.83
2017-08-26T11:17:47.474Z,5.10
2017-08-26T11:20:15.689Z,7.00
2017-08-26T11:22:43.879Z,3.50
2017-08-26T11:25:12.467Z,3.63
2017-08-26T11:27:40.641Z,3.60
2017-08-26T11:30:08.856Z,4.73
2017-08-26T11:32:37.022Z,4.43
2017-08-26T11:35:05.171Z,5.50
2017-08-26T11:37:33.365Z,3.63
2017-08-26T11:40:01.534Z,3.60
2017-08-26T11:42:29.688Z,4.47
2017-08-26T11:44:57.888Z,3.43
2017-08-26T11:47:26.039Z,5.90
2017-08-26T11:49:54.191Z,4.40
2017-08-26T11:52:22.371Z,6.43
2017-08-26T11:54:50.537Z,5.43
2017-08-26T11:57:18.686Z,3.97
2017-08-26T11:59:46.862Z,6.27
2017-08-26T12:02:15.024Z,4.20
2017-08-26T12:04:43.184Z,3.73
2017-08-26T12:07:11.362Z,4.07
2017-08-26T12:09:39.528Z,3.90
2017-08-26T12:12:07.698Z,4.73
2017-08-26T12:14:35.905Z,3.60
2017-08-26T12:17:04.076Z,4.70
2017-08-26T12:19:32.217Z,5.13
2017-08-26T12:22:00.399Z,5.10
2017-08-26T12:24:28.553Z,4.03
2017-08-26T12:26:56.722Z,7.10
2017-08-26T12:29:24.918Z,3.97
2017-08-26T12:31:53.852Z,4.30
2017-08-26T12:34:22.020Z,4.93
2017-08-26T12:36:50.216Z,5.87
2017-08-26T12:39:18.368Z,5.57
2017-08-26T12:41:46.513Z,5.00
2017-08-26T12:44:14.688Z,6.00
2017-08-26T12:46:42.838Z,4.90
2017-08-26T12:49:11.023Z,8.55
2017-08-26T12:51:39.220Z,5.00
2017-08-26T12:54:07.383Z,4.12
2017-08-26T12:56:35.602Z,4.25
2017-08-26T12:59:03.801Z,6.70
2017-08-26T13:01:31.974Z,4.82
2017-08-26T13:04:00.134Z,4.95
2017-08-26T13:06:29.550Z,5.65
2017-08-26T13:08:57.725Z,9.02
2017-08-26T13:11:25.889Z,4.50
2017-08-26T13:13:54.119Z,5.18
2017-08-26T13:16:22.302Z,5.00
2017-08-26T13:18:50.478Z,5.47
2017-08-26T13:21:18.678Z,4.87
2017-08-26T13:23:46.839Z,4.53
2017-08-26T13:26:15.005Z,4.37
2017-08-26T13:28:43.196Z,4.07
2017-08-26T13:31:11.347Z,4.80
2017-08-26T13:33:39.521Z,4.35
2017-08-26T13:36:07.732Z,4.85
2017-08-26T13:38:35.895Z,4.20
2017-08-26T13:41:04.066Z,3.78
2017-08-26T13:43:32.250Z,4.62
2017-08-26T13:46:00.417Z,5.07
2017-08-26T13:48:28.592Z,4.62
2017-08-26T13:50:56.789Z,4.37
2017-08-26T13:53:24.964Z,4.10
2017-08-26T13:55:53.115Z,4.10
2017-08-26T13:58:21.295Z,4.03
2017-08-26T14:00:49.488Z,5.05
2017-08-26T14:03:17.639Z,4.55
2017-08-26T14:05:45.822Z,4.60
2017-08-26T14:08:13.983Z,6.55
2017-08-26T14:10:42.137Z,3.83
2017-08-26T14:13:10.337Z,5.18
2017-08-26T14:15:38.517Z,4.70
2017-08-26T14:18:06.693Z,4.90
2017-08-26T14:20:34.871Z,4.40
2017-08-26T14:23:03.046Z,5.20
2017-08-26T14:25:31.197Z,5.60
2017-08-26T14:27:59.393Z,5.15
2017-08-26T14:30:27.579Z,5.10
2017-08-26T14:32:55.755Z,4.82
2017-08-26T14:35:23.938Z,5.22
2017-08-26T14:37:52.107Z,9.10
2017-08-26T14:40:20.256Z,5.43
2017-08-26T14:42:48.434Z,5.82
2017-08-26T14:45:16.605Z,7.97
2017-08-26T14:47:44.779Z,8.35
2017-08-26T14:50:12.979Z,6.37
2017-08-26T14:52:41.150Z,7.78
2017-08-26T14:55:09.340Z,4.75
2017-08-26T14:57:37.541Z,5.12
2017-08-26T15:00:05.703Z,7.68
2017-08-26T15:02:33.855Z,6.68
2017-08-26T15:05:02.039Z,5.90
2017-08-26T15:07:30.220Z,4.85
2017-08-26T15:09:58.393Z,4.60
2017-08-26T15:12:27.347Z,4.90
2017-08-26T15:14:55.507Z,6.68
2017-08-26T15:17:23.675Z,5.82
2017-08-26T15:19:52.623Z,4.57
2017-08-26T15:22:20.791Z,5.72
2017-08-26T15:24:48.962Z,5.15
2017-08-26T15:27:17.147Z,4.82
2017-08-26T15:29:45.294Z,5.40
2017-08-26T15:32:13.466Z,5.57
2017-08-26T15:34:41.658Z,5.20
2017-08-26T15:37:09.810Z,5.65
2017-08-26T15:39:37.963Z,5.43
2017-08-26T15:42:06.156Z,6.20
2017-08-26T15:44:34.322Z,6.15
2017-08-26T15:47:02.473Z,5.60
2017-08-26T15:49:30.671Z,9.48
2017-08-26T15:51:59.602Z,6.43
2017-08-26T15:54:27.766Z,5.95
2017-08-26T15:56:55.962Z,6.07
2017-08-26T15:59:24.130Z,5.30
2017-08-26T16:01:52.402Z,6.47
2017-08-26T16:04:20.594Z,5.55
2017-08-26T16:06:48.758Z,6.15
2017-08-26T16:09:16.910Z,6.35
2017-08-26T16:11:45.086Z,6.05
2017-08-26T16:14:13.235Z,5.80
2017-08-26T16:16:41.400Z,5.82
2017-08-26T16:19:09.623Z,5.62
2017-08-26T16:21:37.791Z,5.62
2017-08-26T16:24:05.946Z,8.82
2017-08-26T16:26:34.130Z,6.25
2017-08-26T16:29:02.294Z,9.90
2017-08-26T16:31:30.442Z,8.75
2017-08-26T16:33:58.630Z,6.47
2017-08-26T16:36:26.787Z,11.25
2017-08-26T16:38:54.967Z,5.95
2017-08-26T16:41:23.910Z,9.30
2017-08-26T16:43:52.064Z,6.50
2017-08-26T16:46:20.222Z,5.65
2017-08-26T16:48:48.417Z,5.82
2017-08-26T16:51:16.592Z,9.07
2017-08-26T16:53:44.748Z,6.22
2017-08-26T16:56:12.950Z,9.27
2017-08-26T16:58:41.126Z,10.48
2017-08-26T17:01:09.313Z,6.70
2017-08-26T17:03:37.518Z,12.07
2017-08-26T17:06:05.681Z,10.40
2017-08-26T17:08:33.836Z,12.02
2017-08-26T17:11:02.028Z,9.23
2017-08-26T17:13:30.179Z,8.02
2017-08-26T17:15:58.322Z,7.30
2017-08-26T17:18:26.522Z,7.72
2017-08-26T17:20:54.681Z,7.62
2017-08-26T17:23:22.855Z,9.73
2017-08-26T17:25:51.049Z,7.80
2017-08-26T17:28:19.201Z,9.85
2017-08-26T17:30:47.347Z,9.57
2017-08-26T17:33:15.522Z,9.85
2017-08-26T17:35:43.751Z,8.75
2017-08-26T17:38:11.926Z,8.23
2017-08-26T17:40:40.142Z,7.95
2017-08-26T17:43:08.291Z,7.87
2017-08-26T17:45:36.464Z,11.52
2017-08-26T17:48:04.646Z,10.30
2017-08-26T17:50:32.792Z,7.72
2017-08-26T17:53:00.945Z,7.60
2017-08-26T17:55:29.127Z,9.25
2017-08-26T17:57:57.275Z,8.50
2017-08-26T18:00:25.435Z,8.90
2017-08-26T18:02:53.615Z,8.40
2017-08-26T18:05:21.775Z,9.65
2017-08-26T18:07:49.953Z,8.40
2017-08-26T18:10:18.131Z,11.10
2017-08-26T18:12:46.273Z,8.65
2017-08-26T18:15:14.419Z,9.13
2017-08-26T18:17:42.595Z,10.07
2017-08-26T18:20:10.754Z,10.10
2017-08-26T18:22:38.906Z,8.32
2017-08-26T18:25:07.137Z,9.25
2017-08-26T18:27:35.292Z,13.07
2017-08-26T18:30:03.458Z,8.75
2017-08-26T18:32:31.636Z,10.73
2017-08-26T18:34:59.800Z,8.40
2017-08-26T18:37:27.957Z,10.43
2017-08-26T18:39:56.150Z,7.87
2017-08-26T18:42:24.325Z,6.65
2017-08-26T18:44:52.534Z,8.43
2017-08-26T18:47:20.724Z,6.20
2017-08-26T18:49:48.897Z,10.25
2017-08-26T18:52:17.045Z,7.93
2017-08-26T18:54:45.226Z,7.70
2017-08-26T18:57:13.393Z,6.93
2017-08-26T18:59:41.539Z,6.53
2017-08-26T19:02:09.738Z,7.35
2017-08-26T19:04:37.889Z,12.07
2017-08-26T19:07:06.061Z,11.75
2017-08-26T19:09:35.028Z,8.93
2017-08-26T19:12:03.204Z,11.98
2017-08-26T19:14:31.374Z,11.98
2017-08-26T19:16:59.562Z,7.75
2017-08-26T19:19:27.730Z,7.22
2017-08-26T19:21:55.895Z,8.77
2017-08-26T19:24:24.067Z,9.25
2017-08-26T19:26:52.228Z,8.30
2017-08-26T19:29:20.396Z,13.85
2017-08-26T19:31:48.585Z,8.48
2017-08-26T19:34:16.729Z,9.43
2017-08-26T19:36:44.892Z,10.65
2017-08-26T19:39:13.064Z,8.23
2017-08-26T19:41:41.230Z,7.85
2017-08-26T19:44:09.400Z,9.23
2017-08-26T19:46:37.590Z,9.05
2017-08-26T19:49:05.753Z,8.80
2017-08-26T19:51:33.921Z,8.32
2017-08-26T19:54:02.118Z,7.65
2017-08-26T19:56:30.282Z,8.68
2017-08-26T19:58:58.433Z,11.43
2017-08-26T20:01:26.617Z,12.15
2017-08-26T20:03:54.785Z,9.55
2017-08-26T20:06:22.934Z,6.93
2017-08-26T20:08:51.478Z,8.95
2017-08-26T20:11:19.623Z,6.78
2017-08-26T20:13:47.794Z,6.80
2017-08-26T20:16:15.983Z,7.97
2017-08-26T20:18:44.136Z,7.30
2017-08-26T20:21:12.308Z,7.65
2017-08-26T20:23:40.490Z,8.32
2017-08-26T20:26:08.668Z,7.03
2017-08-26T20:28:37.579Z,7.82
2017-08-26T20:31:05.769Z,9.48
2017-08-26T20:33:33.933Z,8.43
2017-08-26T20:36:02.078Z,9.60
2017-08-26T20:38:30.310Z,8.80
2017-08-26T20:40:58.481Z,11.68
2017-08-26T20:43:26.626Z,9.82
2017-08-26T20:45:54.822Z,16.05
2017-08-26T20:48:22.974Z,16.42
2017-08-26T20:50:51.123Z,15.90
2017-08-26T20:53:19.326Z,19.60
2017-08-26T20:55:47.501Z,11.95
2017-08-26T20:58:15.656Z,15.68
2017-08-26T21:00:43.852Z,12.88
2017-08-26T21:03:12.026Z,12.40
2017-08-26T21:05:40.182Z,11.63
2017-08-26T21:08:08.382Z,11.85
2017-08-26T21:10:36.535Z,12.65
2017-08-26T21:13:04.713Z,14.27
2017-08-26T21:15:32.893Z,12.30
2017-08-26T21:18:01.051Z,13.07
2017-08-26T21:20:29.224Z,14.93
2017-08-26T21:22:57.406Z,16.08
2017-08-26T21:25:25.578Z,10.02
2017-08-26T21:27:54.491Z,9.88
2017-08-26T21:30:22.690Z,10.02
2017-08-26T21:32:50.842Z,9.35
2017-08-26T21:38:50.476Z,8.65
2017-08-26T21:41:18.646Z,9.48
2017-08-26T21:43:46.795Z,8.73
2017-08-26T21:46:15.734Z,8.55
2017-08-26T21:48:43.910Z,10.25
2017-08-26T21:51:12.053Z,9.68
2017-08-26T21:53:40.257Z,7.43
2017-08-26T21:56:08.410Z,15.48
2017-08-26T21:58:36.578Z,9.35
2017-08-26T22:01:04.773Z,6.45
2017-08-26T22:03:32.914Z,7.65
2017-08-26T22:06:01.827Z,12.50
2017-08-26T22:08:30.008Z,8.00
2017-08-26T22:10:58.150Z,11.57
2017-08-26T22:13:26.301Z,12.25
2017-08-26T22:15:54.767Z,13.48
2017-08-26T22:18:22.927Z,9.50
2017-08-26T22:20:51.100Z,10.70
2017-08-26T22:23:19.299Z,10.15
2017-08-26T22:25:47.469Z,16.50
2017-08-26T22:28:15.643Z,11.02
2017-08-26T22:30:43.823Z,12.50
2017-08-26T22:33:11.975Z,13.90
2017-08-26T22:35:40.121Z,14.10
2017-08-26T22:38:08.306Z,10.32
2017-08-26T22:40:36.450Z,9.55
2017-08-26T22:43:05.209Z,10.25
2017-08-26T22:45:33.393Z,12.98
2017-08-26T22:48:01.552Z,11.43
2017-08-26T22:50:29.701Z,11.80
2017-08-26T22:52:57.881Z,11.43
2017-08-26T22:55:26.032Z,9.05
2017-08-26T22:57:54.183Z,10.65
2017-08-26T23:00:22.370Z,10.18
2017-08-26T23:02:50.523Z,11.93
2017-08-26T23:05:18.690Z,14.70
2017-08-26T23:07:46.879Z,10.38
2017-08-26T23:10:15.028Z,11.00
2017-08-26T23:12:43.213Z,8.80
2017-08-26T23:15:11.413Z,11.48
2017-08-26T23:17:39.587Z,11.12
2017-08-26T23:20:07.760Z,10.73
2017-08-26T23:22:35.938Z,10.23
2017-08-26T23:25:04.102Z,10.07
2017-08-26T23:27:32.284Z,9.48
2017-08-26T23:30:00.470Z,10.73
2017-08-26T23:32:28.622Z,10.05
2017-08-26T23:34:56.777Z,10.90
2017-08-26T23:37:24.972Z,9.88
2017-08-26T23:39:53.173Z,10.18
2017-08-26T23:42:21.347Z,10.32
2017-08-26T23:44:49.541Z,10.05
2017-08-26T23:47:17.712Z,10.15
2017-08-26T23:49:45.857Z,9.80
2017-08-26T23:52:15.114Z,9.73
2017-08-26T23:54:43.277Z,9.60
2017-08-26T23:57:11.457Z,9.90
2017-08-26T23:59:39.646Z,8.32
